Bernard, Iowa
Current Conditions -  °F | °C
As of 1:53 AM on Monday 24 Nov 2014 (Local Time) from KDBQ Reporting Station
Overcast Overcast  
Wind Chill: 29°   Ceiling: 500
Heat Index: 38°   Visibility: 7mi
Dew Point: 38°   Wind: 17mph
Humidity: 100%   Direction: 320°NW
Pressure: 29.14"   Gusts: 29mph
Location:  42.31°N, 90.83°W
Report Text: KDBQ 240753Z AUTO 32015G25KT 7SM OVC005 03/03 A2914 RMK AO2 SLP872 T00330033 $
Loading
Personal Weather Stations






























Interactive Weather Map New forecast layout! Learn more

10-Day Weather Forecast

Advertisements
Track Severe Weather on mobile